createdAt,value
2018-02-12T00:01:41.954Z,7.97
2018-02-12T00:04:10.369Z,7.10
2018-02-12T00:06:38.672Z,7.90
2018-02-12T00:09:06.968Z,7.20
2018-02-12T00:11:35.259Z,7.27
2018-02-12T00:14:03.552Z,7.03
2018-02-12T00:16:31.830Z,6.27
2018-02-12T00:19:00.114Z,7.10
2018-02-12T00:21:28.400Z,6.90
2018-02-12T00:23:56.701Z,6.33
2018-02-12T00:26:25.000Z,6.20
2018-02-12T00:28:53.294Z,6.13
2018-02-12T00:31:21.591Z,5.87
2018-02-12T00:33:49.881Z,6.03
2018-02-12T00:36:18.217Z,5.70
2018-02-12T00:38:46.525Z,5.83
2018-02-12T00:41:14.850Z,6.07
2018-02-12T00:43:43.133Z,6.10
2018-02-12T00:46:11.401Z,5.57
2018-02-12T00:48:39.709Z,5.83
2018-02-12T00:51:08.000Z,5.83
2018-02-12T00:53:36.296Z,5.57
2018-02-12T00:56:04.372Z,5.40
2018-02-12T00:58:32.667Z,5.40
2018-02-12T01:01:00.951Z,5.20
2018-02-12T01:03:29.253Z,5.20
2018-02-12T01:05:57.577Z,5.50
2018-02-12T01:08:25.870Z,4.77
2018-02-12T01:10:54.153Z,4.97
2018-02-12T01:13:22.458Z,4.70
2018-02-12T01:15:50.758Z,4.90
2018-02-12T01:18:19.084Z,4.77
2018-02-12T01:20:47.185Z,4.80
2018-02-12T01:23:15.473Z,5.00
2018-02-12T01:25:43.760Z,4.57
2018-02-12T01:28:12.048Z,5.30
2018-02-12T01:30:40.320Z,4.47
2018-02-12T01:33:08.606Z,5.37
2018-02-12T01:35:36.893Z,4.50
2018-02-12T01:38:05.176Z,4.30
2018-02-12T01:40:34.245Z,4.80
2018-02-12T01:43:02.530Z,4.47
2018-02-12T01:45:30.831Z,4.83
2018-02-12T01:47:59.154Z,4.40
2018-02-12T01:50:27.288Z,4.40
2018-02-12T01:52:55.567Z,4.60
2018-02-12T01:55:23.906Z,4.67
2018-02-12T01:57:52.190Z,4.60
2018-02-12T02:00:20.490Z,4.50
2018-02-12T02:02:48.783Z,4.03
2018-02-12T02:05:17.074Z,3.97
2018-02-12T02:07:45.357Z,4.23
2018-02-12T02:10:13.629Z,3.80
2018-02-12T02:12:41.952Z,4.10
2018-02-12T02:15:10.244Z,3.90
2018-02-12T02:17:38.540Z,4.17
2018-02-12T02:20:06.851Z,3.60
2018-02-12T02:22:35.126Z,3.90
2018-02-12T02:25:03.404Z,4.13
2018-02-12T02:27:31.752Z,3.90
2018-02-12T02:30:00.056Z,4.30
2018-02-12T02:32:28.365Z,4.33
2018-02-12T02:34:56.658Z,4.10
2018-02-12T02:37:24.975Z,3.90
2018-02-12T02:39:53.265Z,3.60
2018-02-12T02:42:21.569Z,4.17
2018-02-12T02:44:49.871Z,4.03
2018-02-12T02:47:18.171Z,4.40
2018-02-12T02:49:46.470Z,4.67
2018-02-12T02:52:14.775Z,5.40
2018-02-12T02:54:43.087Z,5.13
2018-02-12T02:57:11.378Z,4.67
2018-02-12T02:59:39.672Z,5.23
2018-02-12T03:02:07.976Z,5.00
2018-02-12T03:04:36.272Z,5.53
2018-02-12T03:07:04.581Z,5.37
2018-02-12T03:09:32.869Z,6.40
2018-02-12T03:12:01.149Z,6.70
2018-02-12T03:14:29.481Z,9.53
2018-02-12T03:16:57.788Z,8.33
2018-02-12T03:19:26.083Z,9.20
2018-02-12T03:21:54.385Z,8.80
2018-02-12T03:24:22.680Z,8.50
2018-02-12T03:26:50.979Z,8.13
2018-02-12T03:29:19.263Z,7.33
2018-02-12T03:31:47.574Z,7.50
2018-02-12T03:34:15.863Z,7.70
2018-02-12T03:36:44.144Z,7.80
2018-02-12T03:39:12.440Z,8.80
2018-02-12T03:41:40.746Z,9.43
2018-02-12T03:44:09.049Z,8.80
2018-02-12T03:46:37.157Z,7.97
2018-02-12T03:49:05.452Z,8.00
2018-02-12T03:51:33.749Z,7.63
2018-02-12T03:54:02.031Z,7.77
2018-02-12T03:56:30.347Z,7.47
2018-02-12T03:58:58.635Z,7.27
2018-02-12T04:01:26.938Z,7.37
2018-02-12T04:03:55.222Z,6.70
2018-02-12T04:06:23.552Z,7.00
2018-02-12T04:08:51.845Z,6.53
2018-02-12T04:11:20.153Z,7.27
2018-02-12T04:13:48.474Z,6.93
2018-02-12T04:16:16.800Z,6.73
2018-02-12T04:18:44.926Z,7.67
2018-02-12T04:21:13.220Z,7.97
2018-02-12T04:23:41.513Z,7.63
2018-02-12T04:26:09.805Z,7.57
2018-02-12T04:28:38.107Z,8.70
2018-02-12T04:31:06.423Z,8.83
2018-02-12T04:33:34.716Z,9.07
2018-02-12T04:36:03.027Z,8.47
2018-02-12T04:38:31.344Z,8.63
2018-02-12T04:40:59.639Z,8.77
2018-02-12T04:43:27.928Z,8.23
2018-02-12T04:45:56.244Z,7.50
2018-02-12T04:48:24.656Z,7.73
2018-02-12T04:50:52.960Z,7.23
2018-02-12T04:53:21.279Z,7.70
2018-02-12T04:55:49.579Z,6.80
2018-02-12T04:58:17.868Z,6.73
2018-02-12T05:00:46.199Z,7.13
2018-02-12T05:03:14.487Z,7.60
2018-02-12T05:05:42.787Z,6.80
2018-02-12T05:08:11.121Z,6.70
2018-02-12T05:10:39.412Z,7.00
2018-02-12T05:13:07.737Z,7.20
2018-02-12T05:15:36.039Z,6.37
2018-02-12T05:18:04.345Z,6.37
2018-02-12T05:20:32.721Z,6.40
2018-02-12T05:23:01.039Z,5.90
2018-02-12T05:25:29.375Z,5.80
2018-02-12T05:27:57.686Z,6.10
2018-02-12T05:30:25.970Z,5.67
2018-02-12T05:32:54.276Z,5.77
2018-02-12T05:35:22.567Z,5.80
2018-02-12T05:37:50.880Z,5.87
2018-02-12T05:40:19.171Z,6.00
2018-02-12T05:42:47.466Z,6.03
2018-02-12T05:45:15.795Z,6.30
2018-02-12T05:47:44.094Z,5.50
2018-02-12T05:50:12.388Z,6.20
2018-02-12T05:52:40.684Z,6.63
2018-02-12T05:55:08.999Z,6.63
2018-02-12T05:57:37.287Z,7.07
2018-02-12T06:00:05.601Z,6.97
2018-02-12T06:02:33.909Z,7.23
2018-02-12T06:05:02.201Z,7.13
2018-02-12T06:07:30.528Z,6.80
2018-02-12T06:09:58.845Z,6.50
2018-02-12T06:12:27.119Z,6.53
2018-02-12T06:14:55.445Z,6.57
2018-02-12T06:17:23.740Z,6.37
2018-02-12T06:19:52.055Z,6.63
2018-02-12T06:22:20.333Z,6.73
2018-02-12T06:24:48.634Z,5.97
2018-02-12T06:27:16.936Z,6.80
2018-02-12T06:29:45.236Z,6.13
2018-02-12T06:32:13.528Z,6.10
2018-02-12T06:34:41.838Z,6.53
2018-02-12T06:37:10.140Z,5.90
2018-02-12T06:39:38.418Z,6.27
2018-02-12T06:42:06.717Z,7.50
2018-02-12T06:44:35.019Z,6.80
2018-02-12T06:47:03.298Z,7.40
2018-02-12T06:49:31.602Z,8.60
2018-02-12T06:51:59.908Z,9.43
2018-02-12T06:54:28.210Z,9.90
2018-02-12T06:56:56.527Z,9.60
2018-02-12T06:59:24.820Z,10.00
2018-02-12T07:01:53.127Z,9.50
2018-02-12T07:04:21.440Z,10.13
2018-02-12T07:06:49.772Z,10.40
2018-02-12T07:09:18.074Z,10.00
2018-02-12T07:11:46.362Z,9.63
2018-02-12T07:14:14.679Z,10.00
2018-02-12T07:16:42.958Z,10.23
2018-02-12T07:19:11.301Z,10.57
2018-02-12T07:21:39.627Z,10.37
2018-02-12T07:24:07.922Z,9.97
2018-02-12T07:26:36.230Z,10.10
2018-02-12T07:29:04.524Z,9.50
2018-02-12T07:31:32.617Z,10.07
2018-02-12T07:34:00.903Z,10.33
2018-02-12T07:36:29.219Z,11.00
2018-02-12T07:38:57.514Z,11.90
2018-02-12T07:41:25.814Z,12.50
2018-02-12T07:43:54.126Z,11.40
2018-02-12T07:46:22.414Z,11.03
2018-02-12T07:48:50.702Z,12.60
2018-02-12T07:51:19.009Z,11.23
2018-02-12T07:53:47.464Z,12.07
2018-02-12T07:56:15.784Z,12.13
2018-02-12T07:58:44.089Z,11.90
2018-02-12T08:01:12.410Z,11.80
2018-02-12T08:03:40.698Z,11.13
2018-02-12T08:06:09.021Z,12.07
2018-02-12T08:08:37.495Z,11.10
2018-02-12T08:11:05.782Z,11.20
2018-02-12T08:13:34.088Z,10.43
2018-02-12T08:16:02.389Z,10.40
2018-02-12T08:18:30.693Z,9.53
2018-02-12T08:20:59.009Z,10.27
2018-02-12T08:23:27.312Z,9.87
2018-02-12T08:25:55.654Z,10.43
2018-02-12T08:28:23.954Z,9.13
2018-02-12T08:30:52.242Z,8.67
2018-02-12T08:33:20.535Z,9.10
2018-02-12T08:35:48.838Z,9.40
2018-02-12T08:38:17.114Z,8.20
2018-02-12T08:40:45.425Z,8.50
2018-02-12T08:43:13.728Z,8.60
2018-02-12T08:45:42.050Z,8.27
2018-02-12T08:48:10.343Z,8.70
2018-02-12T08:50:38.670Z,7.80
2018-02-12T08:53:06.946Z,7.77
2018-02-12T08:55:35.227Z,8.17
2018-02-12T08:58:03.528Z,8.10
2018-02-12T09:00:31.832Z,7.50
2018-02-12T09:03:00.146Z,7.73
2018-02-12T09:05:28.443Z,8.27
2018-02-12T09:07:56.751Z,7.33
2018-02-12T09:10:25.046Z,7.70
2018-02-12T09:12:53.344Z,7.63
2018-02-12T09:15:21.638Z,7.43
2018-02-12T09:17:49.921Z,7.60
2018-02-12T09:20:18.072Z,7.40
2018-02-12T09:22:46.381Z,7.13
2018-02-12T09:25:14.661Z,7.77
2018-02-12T09:27:42.984Z,7.93
2018-02-12T09:30:11.472Z,7.23
2018-02-12T09:32:39.752Z,7.67
2018-02-12T09:35:08.111Z,7.53
2018-02-12T09:37:36.456Z,7.77
2018-02-12T09:40:04.584Z,6.70
2018-02-12T09:42:32.888Z,6.80
2018-02-12T09:45:01.197Z,6.93
2018-02-12T09:47:29.504Z,6.60
2018-02-12T09:49:58.023Z,7.00
2018-02-12T09:52:26.327Z,6.67
2018-02-12T09:54:54.650Z,7.07
2018-02-12T09:57:22.935Z,7.70
2018-02-12T09:59:51.218Z,8.30
2018-02-12T10:02:19.522Z,7.97
2018-02-12T10:04:47.825Z,8.30
2018-02-12T10:07:16.116Z,8.37
2018-02-12T10:09:44.432Z,7.87
2018-02-12T10:12:12.808Z,9.07
2018-02-12T10:14:41.116Z,17.13
2018-02-12T10:17:09.404Z,17.33
2018-02-12T10:19:37.717Z,13.73
2018-02-12T10:22:06.021Z,11.00
2018-02-12T10:24:34.328Z,11.40
2018-02-12T10:27:02.634Z,11.27
2018-02-12T10:29:30.933Z,12.00
2018-02-12T10:31:59.265Z,11.60
2018-02-12T10:34:27.569Z,11.87
2018-02-12T10:36:55.881Z,12.60
2018-02-12T10:39:24.185Z,12.27
2018-02-12T10:41:52.502Z,12.13
2018-02-12T10:44:20.808Z,13.17
2018-02-12T10:46:49.199Z,12.90
2018-02-12T10:49:17.497Z,12.27
2018-02-12T10:51:45.794Z,13.00
2018-02-12T10:54:14.119Z,13.10
2018-02-12T10:56:42.483Z,12.47
2018-02-12T10:59:10.990Z,12.07
2018-02-12T11:01:39.461Z,11.73
2018-02-12T11:04:07.825Z,11.70
2018-02-12T11:06:36.272Z,11.60
2018-02-12T11:09:04.143Z,11.27
2018-02-12T11:11:32.453Z,11.97
2018-02-12T11:14:00.774Z,11.83
2018-02-12T11:16:29.108Z,11.77
2018-02-12T11:18:57.399Z,11.30
2018-02-12T11:21:25.699Z,11.33
2018-02-12T11:23:54.003Z,11.40
2018-02-12T11:26:22.298Z,11.60
2018-02-12T11:28:50.596Z,11.27
2018-02-12T11:31:18.902Z,11.27
2018-02-12T11:33:47.190Z,11.20
2018-02-12T11:36:15.486Z,11.97
2018-02-12T11:38:43.853Z,11.83
2018-02-12T11:41:12.162Z,11.87
2018-02-12T11:43:40.459Z,13.60
2018-02-12T11:46:08.772Z,16.13
2018-02-12T11:48:37.074Z,17.63
2018-02-12T11:51:05.373Z,20.37
2018-02-12T11:53:33.693Z,22.87
2018-02-12T11:56:02.004Z,23.57
2018-02-12T11:58:30.126Z,23.87
2018-02-12T12:00:58.420Z,23.83
2018-02-12T12:03:26.717Z,23.50
2018-02-12T12:05:55.177Z,21.93
2018-02-12T12:08:23.522Z,22.33
2018-02-12T12:10:51.844Z,20.30
2018-02-12T12:13:20.145Z,20.17
2018-02-12T12:15:48.464Z,20.63
2018-02-12T12:18:16.867Z,19.20
2018-02-12T12:20:45.204Z,18.50
2018-02-12T12:23:13.550Z,19.03
2018-02-12T12:25:41.664Z,18.33
2018-02-12T12:28:09.970Z,17.93
2018-02-12T12:30:38.270Z,17.43
2018-02-12T12:33:06.585Z,18.03
2018-02-12T12:35:34.892Z,18.00
2018-02-12T12:38:03.287Z,18.00
2018-02-12T12:40:31.596Z,16.70
2018-02-12T12:43:00.517Z,16.60
2018-02-12T12:45:28.823Z,16.37
2018-02-12T12:47:57.115Z,16.77
2018-02-12T12:50:25.456Z,16.43
2018-02-12T12:52:53.765Z,16.60
2018-02-12T12:55:22.070Z,15.80
2018-02-12T12:57:50.377Z,15.27
2018-02-12T13:00:18.717Z,16.50
2018-02-12T13:02:47.031Z,16.90
2018-02-12T13:05:15.362Z,16.43
2018-02-12T13:07:43.672Z,16.33
2018-02-12T13:10:11.979Z,16.10
2018-02-12T13:12:40.289Z,17.63
2018-02-12T13:15:08.586Z,16.93
2018-02-12T13:17:36.880Z,18.10
2018-02-12T13:20:05.208Z,15.57
2018-02-12T13:22:33.519Z,16.80
2018-02-12T13:25:01.876Z,16.60
2018-02-12T13:27:30.191Z,17.77
2018-02-12T13:29:58.498Z,18.27
2018-02-12T13:32:26.809Z,16.57
2018-02-12T13:34:55.102Z,16.67
2018-02-12T13:37:23.438Z,17.63
2018-02-12T13:39:51.947Z,18.37
2018-02-12T13:42:20.956Z,20.43
2018-02-12T13:44:49.293Z,20.10
2018-02-12T13:47:17.610Z,19.90
2018-02-12T13:49:46.084Z,19.70
2018-02-12T13:52:14.375Z,20.60
2018-02-12T13:54:42.720Z,20.20
2018-02-12T13:57:11.028Z,19.07
2018-02-12T13:59:39.313Z,18.20
2018-02-12T14:02:07.618Z,18.97
2018-02-12T14:04:35.942Z,18.57
2018-02-12T14:07:04.254Z,17.87
2018-02-12T14:09:32.557Z,18.27
2018-02-12T14:12:02.627Z,17.60
2018-02-12T14:14:30.990Z,18.17
2018-02-12T14:16:59.300Z,16.83
2018-02-12T14:19:27.653Z,17.73
2018-02-12T14:21:55.986Z,17.33
2018-02-12T14:24:24.512Z,17.00
2018-02-12T14:26:52.914Z,17.03
2018-02-12T14:29:21.213Z,16.77
2018-02-12T14:31:49.517Z,15.67
2018-02-12T14:34:17.846Z,16.47
2018-02-12T14:36:46.190Z,16.40
2018-02-12T14:39:14.482Z,15.57
2018-02-12T14:41:42.774Z,16.20
2018-02-12T14:44:11.106Z,16.00
2018-02-12T14:46:39.480Z,15.83
2018-02-12T14:49:07.799Z,15.90
2018-02-12T14:51:36.089Z,15.23
2018-02-12T14:54:04.397Z,16.10
2018-02-12T14:56:32.737Z,16.40
2018-02-12T14:59:01.034Z,15.23
2018-02-12T15:01:29.332Z,15.27
2018-02-12T15:03:57.635Z,15.67
2018-02-12T15:06:25.951Z,14.50
2018-02-12T15:08:54.256Z,14.53
2018-02-12T15:11:22.782Z,14.67
2018-02-12T15:13:51.177Z,15.00
2018-02-12T15:16:19.478Z,14.93
2018-02-12T15:18:47.780Z,15.60
2018-02-12T15:21:16.089Z,18.33
2018-02-12T15:23:44.374Z,22.67
2018-02-12T15:26:12.680Z,28.77
2018-02-12T15:28:40.982Z,28.23
2018-02-12T15:31:09.275Z,31.50
2018-02-12T15:33:37.581Z,30.10
2018-02-12T15:36:05.901Z,27.90
2018-02-12T15:38:34.212Z,29.13
2018-02-12T15:41:02.498Z,27.03
2018-02-12T15:43:30.813Z,28.27
2018-02-12T15:45:59.111Z,27.10
2018-02-12T15:48:27.432Z,25.77
2018-02-12T15:50:55.728Z,25.57
2018-02-12T15:53:24.037Z,25.27
2018-02-12T15:55:52.357Z,25.00
2018-02-12T15:58:20.681Z,24.20
2018-02-12T16:00:48.969Z,24.70
2018-02-12T16:03:17.254Z,25.33
2018-02-12T16:05:45.556Z,25.40
2018-02-12T16:08:13.864Z,24.63
2018-02-12T16:10:42.171Z,24.60
2018-02-12T16:13:10.679Z,24.20
2018-02-12T16:15:38.983Z,23.80
2018-02-12T16:18:07.283Z,22.93
2018-02-12T16:20:35.607Z,24.93
2018-02-12T16:23:03.912Z,23.63
2018-02-12T16:25:32.253Z,22.60
2018-02-12T16:28:00.562Z,23.47
2018-02-12T16:30:28.882Z,22.40
2018-02-12T16:32:57.205Z,22.33
2018-02-12T16:35:25.503Z,22.00
2018-02-12T16:37:53.845Z,20.20
2018-02-12T16:40:22.140Z,21.63
2018-02-12T16:42:50.252Z,21.93
2018-02-12T16:45:18.557Z,20.37
2018-02-12T16:47:46.865Z,20.27
2018-02-12T16:50:15.235Z,21.33
2018-02-12T16:52:43.671Z,22.33
2018-02-12T16:55:11.958Z,22.63
2018-02-12T16:57:40.276Z,21.53
2018-02-12T17:00:08.569Z,22.17
2018-02-12T17:02:36.879Z,21.77
2018-02-12T17:05:04.978Z,21.83
2018-02-12T17:07:33.295Z,20.47
2018-02-12T17:10:01.597Z,21.53
2018-02-12T17:12:29.997Z,20.47
2018-02-12T17:14:58.315Z,20.00
2018-02-12T17:17:26.628Z,18.90
2018-02-12T17:19:54.930Z,20.00
2018-02-12T17:22:23.308Z,19.90
2018-02-12T17:24:51.743Z,19.57
2018-02-12T17:27:20.916Z,19.30
2018-02-12T17:29:49.288Z,19.27
2018-02-12T17:32:17.589Z,18.93
2018-02-12T17:34:45.938Z,18.77
2018-02-12T17:37:14.263Z,17.67
2018-02-12T17:39:42.593Z,18.30
2018-02-12T17:42:10.902Z,17.80
2018-02-12T17:44:39.223Z,18.40
2018-02-12T17:47:07.530Z,18.43
2018-02-12T17:49:35.860Z,17.53
2018-02-12T17:52:04.154Z,18.27
2018-02-12T17:54:32.262Z,17.53
2018-02-12T17:57:02.279Z,16.97
2018-02-12T17:59:30.574Z,17.60
2018-02-12T18:01:58.896Z,17.10
2018-02-12T18:04:27.206Z,17.97
2018-02-12T18:06:55.636Z,16.70
2018-02-12T18:09:23.978Z,16.60
2018-02-12T18:11:52.297Z,16.00
2018-02-12T18:14:20.595Z,16.83
2018-02-12T18:16:48.913Z,17.00
2018-02-12T18:19:17.239Z,16.17
2018-02-12T18:21:45.634Z,17.50
2018-02-12T18:24:13.961Z,17.23
2018-02-12T18:26:42.268Z,19.77
2018-02-12T18:29:10.555Z,18.67
2018-02-12T18:31:38.860Z,18.27
2018-02-12T18:34:07.211Z,17.93
2018-02-12T18:36:35.735Z,17.17
2018-02-12T18:39:04.053Z,16.73
2018-02-12T18:41:32.357Z,17.63
2018-02-12T18:44:00.678Z,16.20
2018-02-12T18:46:28.991Z,16.47
2018-02-12T18:48:57.340Z,16.53
2018-02-12T18:51:25.662Z,16.00
2018-02-12T18:53:53.953Z,16.80
2018-02-12T18:56:22.358Z,15.90
2018-02-12T18:58:50.562Z,15.87
2018-02-12T19:01:18.854Z,16.60
2018-02-12T19:03:47.165Z,15.30
2018-02-12T19:06:15.514Z,16.57
2018-02-12T19:08:43.876Z,17.27
2018-02-12T19:11:12.188Z,17.77
2018-02-12T19:13:41.468Z,17.70
2018-02-12T19:16:09.934Z,17.67
2018-02-12T19:18:38.358Z,17.87
2018-02-12T19:21:06.866Z,18.20
2018-02-12T19:23:35.247Z,18.60
2018-02-12T19:26:03.711Z,18.07
2018-02-12T19:28:32.016Z,18.87
2018-02-12T19:31:00.335Z,18.23
2018-02-12T19:33:28.660Z,19.10
2018-02-12T19:35:56.997Z,18.33
2018-02-12T19:38:25.423Z,18.63
2018-02-12T19:40:53.815Z,18.47
2018-02-12T19:43:22.603Z,19.23
2018-02-12T19:45:50.953Z,18.03
2018-02-12T19:48:19.347Z,19.23
2018-02-12T19:50:47.653Z,19.03
2018-02-12T19:53:15.989Z,19.03
2018-02-12T19:55:44.300Z,19.70
2018-02-12T19:58:13.155Z,19.67
2018-02-12T20:00:41.539Z,19.27
2018-02-12T20:03:09.847Z,19.30
2018-02-12T20:05:39.148Z,18.23
2018-02-12T20:08:08.339Z,19.73
2018-02-12T20:10:37.491Z,18.50
2018-02-12T20:13:10.595Z,18.27
2018-02-12T20:15:46.179Z,17.90
2018-02-12T20:18:14.538Z,17.93
2018-02-12T20:20:42.846Z,17.50
2018-02-12T20:23:11.773Z,17.33
2018-02-12T20:25:40.426Z,16.67
2018-02-12T20:28:08.735Z,16.43
2018-02-12T20:30:37.063Z,17.73
2018-02-12T20:33:05.427Z,17.43
2018-02-12T20:35:33.743Z,16.03
2018-02-12T20:38:02.222Z,16.43
2018-02-12T20:40:30.514Z,16.10
2018-02-12T20:42:59.116Z,16.57
2018-02-12T20:45:27.755Z,16.73
2018-02-12T20:47:56.235Z,15.90
2018-02-12T20:50:24.648Z,15.87
2018-02-12T20:52:52.990Z,15.50
2018-02-12T20:55:21.331Z,16.00
2018-02-12T20:57:49.646Z,15.60
2018-02-12T21:00:18.022Z,15.00
2018-02-12T21:02:46.482Z,15.10
2018-02-12T21:05:14.818Z,16.10
2018-02-12T21:07:42.974Z,16.50
2018-02-12T21:10:11.308Z,15.73
2018-02-12T21:12:39.631Z,16.50
2018-02-12T21:15:08.358Z,15.20
2018-02-12T21:17:36.654Z,14.83
2018-02-12T21:20:04.735Z,15.43
2018-02-12T21:22:33.052Z,14.87
2018-02-12T21:25:01.804Z,15.83
2018-02-12T21:27:30.135Z,15.60
2018-02-12T21:29:58.548Z,14.60
2018-02-12T21:32:26.861Z,15.47
2018-02-12T21:34:55.208Z,15.47
2018-02-12T21:37:23.547Z,14.87
2018-02-12T21:39:51.886Z,15.27
2018-02-12T21:42:20.213Z,14.53
2018-02-12T21:44:48.525Z,15.23
2018-02-12T21:47:16.813Z,14.43
2018-02-12T21:49:45.172Z,14.83
2018-02-12T21:52:13.474Z,14.83
2018-02-12T21:54:41.786Z,14.63
2018-02-12T21:57:10.108Z,15.00
2018-02-12T21:59:38.420Z,15.10
2018-02-12T22:02:06.755Z,15.23
2018-02-12T22:04:35.096Z,15.50
2018-02-12T22:07:03.401Z,14.93
2018-02-12T22:09:31.691Z,15.10
2018-02-12T22:11:59.995Z,15.97
2018-02-12T22:14:28.298Z,15.97
2018-02-12T22:16:56.591Z,15.77
2018-02-12T22:19:24.905Z,15.63
2018-02-12T22:21:53.200Z,15.80
2018-02-12T22:24:21.501Z,16.50
2018-02-12T22:26:49.811Z,15.33
2018-02-12T22:29:18.120Z,16.17
2018-02-12T22:31:46.443Z,16.00
2018-02-12T22:34:14.726Z,15.33
2018-02-12T22:36:43.050Z,15.87
2018-02-12T22:39:11.334Z,17.00
2018-02-12T22:41:39.641Z,16.73
2018-02-12T22:44:07.960Z,16.00
2018-02-12T22:46:36.262Z,16.03
2018-02-12T22:49:04.577Z,16.73
2018-02-12T22:51:32.869Z,16.13
2018-02-12T22:54:01.163Z,16.50
2018-02-12T22:56:29.477Z,16.53
2018-02-12T22:58:57.774Z,16.93
2018-02-12T23:01:26.077Z,16.97
2018-02-12T23:03:54.463Z,16.77
2018-02-12T23:06:22.776Z,15.57
2018-02-12T23:08:51.078Z,16.47
2018-02-12T23:11:19.377Z,16.27
2018-02-12T23:13:47.684Z,17.03
2018-02-12T23:16:15.969Z,16.63
2018-02-12T23:18:44.279Z,17.20
2018-02-12T23:21:12.590Z,16.93
2018-02-12T23:23:40.899Z,17.17
2018-02-12T23:26:09.190Z,17.43
2018-02-12T23:28:37.486Z,17.53
2018-02-12T23:31:05.805Z,17.13
2018-02-12T23:33:34.109Z,16.37
2018-02-12T23:36:02.416Z,17.87
2018-02-12T23:38:30.736Z,16.40
2018-02-12T23:40:59.043Z,17.43
2018-02-12T23:43:27.334Z,16.70
2018-02-12T23:45:55.735Z,16.77
2018-02-12T23:48:24.208Z,18.30
2018-02-12T23:50:52.506Z,17.10
2018-02-12T23:53:20.799Z,17.67
2018-02-12T23:55:49.140Z,16.50
2018-02-12T23:58:17.442Z,17.30
